sensor_id;sensor_type;location;lat;lon;timestamp;temperature;humidity
47626;DHT22;33342;45.574;9.252;2022-11-04T00:00:44;16.50;1.00
47626;DHT22;33342;45.574;9.252;2022-11-04T00:03:11;16.50;1.00
47626;DHT22;33342;45.574;9.252;2022-11-04T00:05:38;16.50;1.00
47626;DHT22;33342;45.574;9.252;2022-11-04T00:08:05;16.40;1.00
47626;DHT22;33342;45.574;9.252;2022-11-04T00:10:58;16.40;1.00
47626;DHT22;33342;45.574;9.252;2022-11-04T00:13:44;16.40;1.00
47626;DHT22;33342;45.574;9.252;2022-11-04T00:16:12;16.40;1.00
47626;DHT22;33342;45.574;9.252;2022-11-04T00:19:01;16.40;1.00
47626;DHT22;33342;45.574;9.252;2022-11-04T00:21:28;16.40;1.00
47626;DHT22;33342;45.574;9.252;2022-11-04T00:24:14;16.40;1.00
47626;DHT22;33342;45.574;9.252;2022-11-04T00:26:59;16.40;1.00
47626;DHT22;33342;45.574;9.252;2022-11-04T00:29:45;16.40;1.00
47626;DHT22;33342;45.574;9.252;2022-11-04T00:32:12;16.40;1.00
47626;DHT22;33342;45.574;9.252;2022-11-04T00:34:57;16.40;1.00
47626;DHT22;33342;45.574;9.252;2022-11-04T00:37:25;16.40;1.00
47626;DHT22;33342;45.574;9.252;2022-11-04T00:39:52;16.40;1.00
47626;DHT22;33342;45.574;9.252;2022-11-04T00:42:19;16.30;1.00
47626;DHT22;33342;45.574;9.252;2022-11-04T00:44:46;16.30;1.00
47626;DHT22;33342;45.574;9.252;2022-11-04T00:47:13;16.30;1.00
47626;DHT22;33342;45.574;9.252;2022-11-04T00:49:40;16.30;1.00
47626;DHT22;33342;45.574;9.252;2022-11-04T00:52:07;16.30;1.00
47626;DHT22;33342;45.574;9.252;2022-11-04T00:54:34;16.20;1.00
47626;DHT22;33342;45.574;9.252;2022-11-04T00:57:01;16.30;1.00
47626;DHT22;33342;45.574;9.252;2022-11-04T00:59:27;16.20;1.00
47626;DHT22;33342;45.574;9.252;2022-11-04T01:01:55;16.20;1.00
47626;DHT22;33342;45.574;9.252;2022-11-04T01:04:22;16.20;1.00
47626;DHT22;33342;45.574;9.252;2022-11-04T01:06:49;16.20;1.00
47626;DHT22;33342;45.574;9.252;2022-11-04T01:09:16;16.20;1.00
47626;DHT22;33342;45.574;9.252;2022-11-04T01:11:43;16.20;1.00
47626;DHT22;33342;45.574;9.252;2022-11-04T01:14:11;16.20;1.00
47626;DHT22;33342;45.574;9.252;2022-11-04T01:16:38;16.20;1.00
47626;DHT22;33342;45.574;9.252;2022-11-04T01:19:05;16.20;1.00
47626;DHT22;33342;45.574;9.252;2022-11-04T01:21:32;16.20;1.00
47626;DHT22;33342;45.574;9.252;2022-11-04T01:24:00;16.20;1.00
47626;DHT22;33342;45.574;9.252;2022-11-04T01:26:27;16.20;1.00
47626;DHT22;33342;45.574;9.252;2022-11-04T01:28:55;16.10;1.00
47626;DHT22;33342;45.574;9.252;2022-11-04T01:31:26;16.10;1.00
47626;DHT22;33342;45.574;9.252;2022-11-04T01:33:53;16.00;1.00
47626;DHT22;33342;45.574;9.252;2022-11-04T01:36:21;16.10;1.00
47626;DHT22;33342;45.574;9.252;2022-11-04T01:38:49;16.10;1.00
47626;DHT22;33342;45.574;9.252;2022-11-04T01:41:20;16.10;1.00
47626;DHT22;33342;45.574;9.252;2022-11-04T01:46:46;16.00;1.00
47626;DHT22;33342;45.574;9.252;2022-11-04T01:49:27;16.00;1.00
47626;DHT22;33342;45.574;9.252;2022-11-04T01:52:01;15.90;1.00
47626;DHT22;33342;45.574;9.252;2022-11-04T01:54:30;15.90;1.00
47626;DHT22;33342;45.574;9.252;2022-11-04T01:56:59;15.90;1.00
47626;DHT22;33342;45.574;9.252;2022-11-04T01:59:31;15.80;1.00
47626;DHT22;33342;45.574;9.252;2022-11-04T02:01:59;15.90;1.00
47626;DHT22;33342;45.574;9.252;2022-11-04T02:04:26;15.80;1.00
47626;DHT22;33342;45.574;9.252;2022-11-04T02:06:56;15.80;1.00
47626;DHT22;33342;45.574;9.252;2022-11-04T02:09:25;15.70;1.00
47626;DHT22;33342;45.574;9.252;2022-11-04T02:11:53;15.70;1.00
47626;DHT22;33342;45.574;9.252;2022-11-04T02:14:38;15.60;1.00
47626;DHT22;33342;45.574;9.252;2022-11-04T02:28:41;15.70;1.00
47626;DHT22;33342;45.574;9.252;2022-11-04T02:31:30;15.70;1.00
47626;DHT22;33342;45.574;9.252;2022-11-04T02:34:23;15.70;1.00
47626;DHT22;33342;45.574;9.252;2022-11-04T02:37:14;15.70;1.00
47626;DHT22;33342;45.574;9.252;2022-11-04T02:45:09;15.50;1.00
47626;DHT22;33342;45.574;9.252;2022-11-04T02:47:43;15.50;1.00
47626;DHT22;33342;45.574;9.252;2022-11-04T02:53:08;15.40;1.00
47626;DHT22;33342;45.574;9.252;2022-11-04T02:55:48;15.40;1.00
47626;DHT22;33342;45.574;9.252;2022-11-04T02:58:22;15.30;1.00
47626;DHT22;33342;45.574;9.252;2022-11-04T03:00:50;15.30;1.00
47626;DHT22;33342;45.574;9.252;2022-11-04T03:03:21;15.20;1.00
47626;DHT22;33342;45.574;9.252;2022-11-04T03:05:52;15.20;1.00
47626;DHT22;33342;45.574;9.252;2022-11-04T03:08:25;15.10;1.00
47626;DHT22;33342;45.574;9.252;2022-11-04T03:11:02;15.10;1.00
47626;DHT22;33342;45.574;9.252;2022-11-04T03:13:43;15.00;1.00
47626;DHT22;33342;45.574;9.252;2022-11-04T03:16:22;14.90;1.00
47626;DHT22;33342;45.574;9.252;2022-11-04T03:21:44;14.80;1.00
47626;DHT22;33342;45.574;9.252;2022-11-04T03:24:13;14.70;1.00
47626;DHT22;33342;45.574;9.252;2022-11-04T03:26:45;14.60;1.00
47626;DHT22;33342;45.574;9.252;2022-11-04T03:29:37;14.50;1.00
47626;DHT22;33342;45.574;9.252;2022-11-04T03:34:38;14.30;1.00
47626;DHT22;33342;45.574;9.252;2022-11-04T03:37:05;14.20;1.00
47626;DHT22;33342;45.574;9.252;2022-11-04T03:39:32;14.20;1.00
47626;DHT22;33342;45.574;9.252;2022-11-04T03:42:03;14.20;1.00
47626;DHT22;33342;45.574;9.252;2022-11-04T03:44:51;14.20;1.00
47626;DHT22;33342;45.574;9.252;2022-11-04T03:47:23;14.30;1.00
47626;DHT22;33342;45.574;9.252;2022-11-04T03:49:56;14.30;1.00
47626;DHT22;33342;45.574;9.252;2022-11-04T03:52:24;14.30;1.00
47626;DHT22;33342;45.574;9.252;2022-11-04T03:54:52;14.20;1.00
47626;DHT22;33342;45.574;9.252;2022-11-04T04:05:32;14.40;1.00
47626;DHT22;33342;45.574;9.252;2022-11-04T04:08:14;14.40;1.00
47626;DHT22;33342;45.574;9.252;2022-11-04T04:16:16;14.10;1.00
47626;DHT22;33342;45.574;9.252;2022-11-04T04:19:29;14.00;1.00
47626;DHT22;33342;45.574;9.252;2022-11-04T04:21:51;13.80;1.00
47626;DHT22;33342;45.574;9.252;2022-11-04T04:24:22;13.70;1.00
47626;DHT22;33342;45.574;9.252;2022-11-04T04:27:10;13.60;1.00
47626;DHT22;33342;45.574;9.252;2022-11-04T04:32:35;13.50;1.00
47626;DHT22;33342;45.574;9.252;2022-11-04T04:35:03;13.50;1.00
47626;DHT22;33342;45.574;9.252;2022-11-04T04:37:49;13.40;1.00
47626;DHT22;33342;45.574;9.252;2022-11-04T04:40:19;13.40;1.00
47626;DHT22;33342;45.574;9.252;2022-11-04T04:43:14;13.40;1.00
47626;DHT22;33342;45.574;9.252;2022-11-04T04:46:00;13.40;1.00
47626;DHT22;33342;45.574;9.252;2022-11-04T04:48:27;13.40;1.00
47626;DHT22;33342;45.574;9.252;2022-11-04T04:50:56;13.40;1.00
47626;DHT22;33342;45.574;9.252;2022-11-04T04:53:27;13.50;1.00
47626;DHT22;33342;45.574;9.252;2022-11-04T04:55:54;13.40;1.00
47626;DHT22;33342;45.574;9.252;2022-11-04T04:58:22;13.40;1.00
47626;DHT22;33342;45.574;9.252;2022-11-04T05:00:49;13.40;1.00
47626;DHT22;33342;45.574;9.252;2022-11-04T05:03:16;13.40;1.00
47626;DHT22;33342;45.574;9.252;2022-11-04T05:05:43;13.40;1.00
47626;DHT22;33342;45.574;9.252;2022-11-04T05:08:10;13.40;1.00
47626;DHT22;33342;45.574;9.252;2022-11-04T05:10:38;13.30;1.00
47626;DHT22;33342;45.574;9.252;2022-11-04T05:13:05;13.20;1.00
47626;DHT22;33342;45.574;9.252;2022-11-04T05:15:50;13.20;1.00
47626;DHT22;33342;45.574;9.252;2022-11-04T05:18:18;13.10;1.00
47626;DHT22;33342;45.574;9.252;2022-11-04T05:20:45;13.10;1.00
47626;DHT22;33342;45.574;9.252;2022-11-04T05:23:12;13.00;1.00
47626;DHT22;33342;45.574;9.252;2022-11-04T05:25:40;12.80;1.00
47626;DHT22;33342;45.574;9.252;2022-11-04T05:28:07;12.60;1.00
47626;DHT22;33342;45.574;9.252;2022-11-04T05:30:35;12.30;1.00
47626;DHT22;33342;45.574;9.252;2022-11-04T05:33:02;12.20;1.00
47626;DHT22;33342;45.574;9.252;2022-11-04T05:35:31;12.10;1.00
47626;DHT22;33342;45.574;9.252;2022-11-04T05:37:59;12.00;1.00
47626;DHT22;33342;45.574;9.252;2022-11-04T05:40:26;11.90;1.00
47626;DHT22;33342;45.574;9.252;2022-11-04T05:42:53;11.70;1.00
47626;DHT22;33342;45.574;9.252;2022-11-04T05:45:20;11.60;1.00
47626;DHT22;33342;45.574;9.252;2022-11-04T05:47:46;11.50;1.00
47626;DHT22;33342;45.574;9.252;2022-11-04T05:50:13;11.50;1.00
47626;DHT22;33342;45.574;9.252;2022-11-04T05:52:40;11.40;1.00
47626;DHT22;33342;45.574;9.252;2022-11-04T05:55:07;11.40;1.00
47626;DHT22;33342;45.574;9.252;2022-11-04T05:57:35;11.40;1.00
47626;DHT22;33342;45.574;9.252;2022-11-04T06:00:04;11.40;1.00
47626;DHT22;33342;45.574;9.252;2022-11-04T06:02:31;11.50;1.00
47626;DHT22;33342;45.574;9.252;2022-11-04T06:04:59;11.50;1.00
47626;DHT22;33342;45.574;9.252;2022-11-04T06:07:26;11.50;1.00
47626;DHT22;33342;45.574;9.252;2022-11-04T06:09:53;11.60;1.00
47626;DHT22;33342;45.574;9.252;2022-11-04T06:12:20;11.60;1.00
47626;DHT22;33342;45.574;9.252;2022-11-04T06:14:47;11.60;1.00
47626;DHT22;33342;45.574;9.252;2022-11-04T06:17:19;11.60;1.00
47626;DHT22;33342;45.574;9.252;2022-11-04T06:19:47;11.70;1.00
47626;DHT22;33342;45.574;9.252;2022-11-04T06:22:16;11.70;1.00
47626;DHT22;33342;45.574;9.252;2022-11-04T06:24:44;11.80;1.00
47626;DHT22;33342;45.574;9.252;2022-11-04T06:27:12;11.80;1.00
47626;DHT22;33342;45.574;9.252;2022-11-04T06:29:39;11.90;1.00
47626;DHT22;33342;45.574;9.252;2022-11-04T06:32:07;11.90;1.00
47626;DHT22;33342;45.574;9.252;2022-11-04T06:34:34;12.00;1.00
47626;DHT22;33342;45.574;9.252;2022-11-04T06:37:02;12.10;1.00
47626;DHT22;33342;45.574;9.252;2022-11-04T06:39:29;12.20;1.00
47626;DHT22;33342;45.574;9.252;2022-11-04T06:41:56;12.30;1.00
47626;DHT22;33342;45.574;9.252;2022-11-04T06:44:28;12.30;1.00
47626;DHT22;33342;45.574;9.252;2022-11-04T06:46:55;12.40;1.00
47626;DHT22;33342;45.574;9.252;2022-11-04T06:49:22;12.50;1.00
47626;DHT22;33342;45.574;9.252;2022-11-04T06:51:49;12.50;1.00
47626;DHT22;33342;45.574;9.252;2022-11-04T06:54:18;12.60;1.00
47626;DHT22;33342;45.574;9.252;2022-11-04T06:56:45;12.70;1.00
47626;DHT22;33342;45.574;9.252;2022-11-04T06:59:15;12.80;1.00
47626;DHT22;33342;45.574;9.252;2022-11-04T07:01:43;12.90;1.00
47626;DHT22;33342;45.574;9.252;2022-11-04T07:04:10;13.00;1.00
47626;DHT22;33342;45.574;9.252;2022-11-04T07:06:40;13.00;1.00
47626;DHT22;33342;45.574;9.252;2022-11-04T07:09:13;13.10;1.00
47626;DHT22;33342;45.574;9.252;2022-11-04T07:11:41;13.20;1.00
47626;DHT22;33342;45.574;9.252;2022-11-04T07:14:09;13.20;1.00
47626;DHT22;33342;45.574;9.252;2022-11-04T07:16:36;13.30;1.00
47626;DHT22;33342;45.574;9.252;2022-11-04T07:19:04;13.30;1.00
47626;DHT22;33342;45.574;9.252;2022-11-04T07:21:31;13.30;1.00
47626;DHT22;33342;45.574;9.252;2022-11-04T07:24:00;13.30;1.00
47626;DHT22;33342;45.574;9.252;2022-11-04T07:26:27;13.40;1.00
47626;DHT22;33342;45.574;9.252;2022-11-04T07:28:54;13.40;1.00
47626;DHT22;33342;45.574;9.252;2022-11-04T07:31:21;13.50;1.00
47626;DHT22;33342;45.574;9.252;2022-11-04T07:33:48;13.50;1.00
47626;DHT22;33342;45.574;9.252;2022-11-04T07:36:18;13.60;1.00
47626;DHT22;33342;45.574;9.252;2022-11-04T07:38:45;13.60;1.00
47626;DHT22;33342;45.574;9.252;2022-11-04T07:41:12;13.70;1.00
47626;DHT22;33342;45.574;9.252;2022-11-04T07:43:40;13.70;1.00
47626;DHT22;33342;45.574;9.252;2022-11-04T07:46:10;13.70;1.00
47626;DHT22;33342;45.574;9.252;2022-11-04T07:48:38;13.70;1.00
47626;DHT22;33342;45.574;9.252;2022-11-04T07:51:07;13.70;1.00
47626;DHT22;33342;45.574;9.252;2022-11-04T07:53:34;13.70;1.00
47626;DHT22;33342;45.574;9.252;2022-11-04T07:56:10;13.70;1.00
47626;DHT22;33342;45.574;9.252;2022-11-04T07:58:37;13.70;99.90
47626;DHT22;33342;45.574;9.252;2022-11-04T08:01:09;13.80;99.90
47626;DHT22;33342;45.574;9.252;2022-11-04T08:03:36;13.80;99.90
47626;DHT22;33342;45.574;9.252;2022-11-04T08:06:05;13.80;99.90
47626;DHT22;33342;45.574;9.252;2022-11-04T08:08:33;13.80;99.90
47626;DHT22;33342;45.574;9.252;2022-11-04T08:11:04;13.80;99.90
47626;DHT22;33342;45.574;9.252;2022-11-04T08:13:34;13.80;99.90
47626;DHT22;33342;45.574;9.252;2022-11-04T08:16:06;13.90;99.90
47626;DHT22;33342;45.574;9.252;2022-11-04T08:18:35;13.90;99.90
47626;DHT22;33342;45.574;9.252;2022-11-04T08:21:03;14.00;99.90
47626;DHT22;33342;45.574;9.252;2022-11-04T08:23:31;14.00;99.90
47626;DHT22;33342;45.574;9.252;2022-11-04T08:25:59;14.10;99.90
47626;DHT22;33342;45.574;9.252;2022-11-04T08:28:27;14.10;99.90
47626;DHT22;33342;45.574;9.252;2022-11-04T08:30:56;14.10;99.90
47626;DHT22;33342;45.574;9.252;2022-11-04T08:33:25;14.20;99.90
47626;DHT22;33342;45.574;9.252;2022-11-04T08:35:54;14.20;99.90
47626;DHT22;33342;45.574;9.252;2022-11-04T08:38:21;14.20;99.90
47626;DHT22;33342;45.574;9.252;2022-11-04T08:40:48;14.30;99.90
47626;DHT22;33342;45.574;9.252;2022-11-04T08:43:19;14.30;99.90
47626;DHT22;33342;45.574;9.252;2022-11-04T08:45:46;14.40;99.90
47626;DHT22;33342;45.574;9.252;2022-11-04T08:48:13;14.40;99.90
47626;DHT22;33342;45.574;9.252;2022-11-04T08:50:42;14.50;99.90
47626;DHT22;33342;45.574;9.252;2022-11-04T08:53:09;14.50;99.90
47626;DHT22;33342;45.574;9.252;2022-11-04T08:55:37;14.60;99.90
47626;DHT22;33342;45.574;9.252;2022-11-04T08:58:04;14.60;99.90
47626;DHT22;33342;45.574;9.252;2022-11-04T09:00:32;14.60;99.90
47626;DHT22;33342;45.574;9.252;2022-11-04T09:02:59;14.70;99.90
47626;DHT22;33342;45.574;9.252;2022-11-04T09:05:26;14.70;99.90
47626;DHT22;33342;45.574;9.252;2022-11-04T09:07:54;14.70;99.90
47626;DHT22;33342;45.574;9.252;2022-11-04T09:10:21;14.80;99.90
47626;DHT22;33342;45.574;9.252;2022-11-04T09:12:48;14.80;99.90
47626;DHT22;33342;45.574;9.252;2022-11-04T09:15:15;14.80;99.90
47626;DHT22;33342;45.574;9.252;2022-11-04T09:17:42;14.80;99.90
47626;DHT22;33342;45.574;9.252;2022-11-04T09:20:10;14.90;99.90
47626;DHT22;33342;45.574;9.252;2022-11-04T09:22:37;14.90;99.90
47626;DHT22;33342;45.574;9.252;2022-11-04T09:25:11;14.90;99.90
47626;DHT22;33342;45.574;9.252;2022-11-04T09:27:38;14.90;99.90
47626;DHT22;33342;45.574;9.252;2022-11-04T09:30:05;15.00;99.90
47626;DHT22;33342;45.574;9.252;2022-11-04T09:32:32;15.00;99.90
47626;DHT22;33342;45.574;9.252;2022-11-04T09:34:59;15.00;99.90
47626;DHT22;33342;45.574;9.252;2022-11-04T09:37:26;15.10;99.90
47626;DHT22;33342;45.574;9.252;2022-11-04T09:39:53;15.10;99.90
47626;DHT22;33342;45.574;9.252;2022-11-04T09:45:11;15.20;99.90
47626;DHT22;33342;45.574;9.252;2022-11-04T09:47:50;15.20;99.90
47626;DHT22;33342;45.574;9.252;2022-11-04T09:50:24;15.30;99.90
47626;DHT22;33342;45.574;9.252;2022-11-04T09:53:03;15.30;99.90
47626;DHT22;33342;45.574;9.252;2022-11-04T09:55:54;15.30;99.90
47626;DHT22;33342;45.574;9.252;2022-11-04T09:58:22;15.30;99.90
47626;DHT22;33342;45.574;9.252;2022-11-04T10:01:48;15.40;99.90
47626;DHT22;33342;45.574;9.252;2022-11-04T10:04:29;15.40;99.90
47626;DHT22;33342;45.574;9.252;2022-11-04T10:07:25;15.50;99.90
47626;DHT22;33342;45.574;9.252;2022-11-04T10:09:59;15.50;99.90
47626;DHT22;33342;45.574;9.252;2022-11-04T10:23:41;15.70;99.90
47626;DHT22;33342;45.574;9.252;2022-11-04T10:26:35;15.70;99.90
47626;DHT22;33342;45.574;9.252;2022-11-04T10:29:43;15.70;99.90
47626;DHT22;33342;45.574;9.252;2022-11-04T10:32:17;15.80;99.90
47626;DHT22;33342;45.574;9.252;2022-11-04T10:34:54;15.80;99.90
47626;DHT22;33342;45.574;9.252;2022-11-04T10:37:24;15.80;99.90
47626;DHT22;33342;45.574;9.252;2022-11-04T10:40:16;15.80;99.90
47626;DHT22;33342;45.574;9.252;2022-11-04T10:42:42;15.90;99.90
47626;DHT22;33342;45.574;9.252;2022-11-04T10:45:11;15.90;99.90
47626;DHT22;33342;45.574;9.252;2022-11-04T10:47:46;15.90;99.90
47626;DHT22;33342;45.574;9.252;2022-11-04T10:50:34;15.90;99.90
47626;DHT22;33342;45.574;9.252;2022-11-04T10:53:26;16.00;99.90
47626;DHT22;33342;45.574;9.252;2022-11-04T10:56:11;16.00;99.90
47626;DHT22;33342;45.574;9.252;2022-11-04T10:58:45;16.00;99.90
47626;DHT22;33342;45.574;9.252;2022-11-04T11:01:33;16.10;99.90
47626;DHT22;33342;45.574;9.252;2022-11-04T11:04:05;16.10;99.90
47626;DHT22;33342;45.574;9.252;2022-11-04T11:06:39;16.10;99.90
47626;DHT22;33342;45.574;9.252;2022-11-04T11:09:18;16.10;99.90
47626;DHT22;33342;45.574;9.252;2022-11-04T11:11:49;16.20;99.90
47626;DHT22;33342;45.574;9.252;2022-11-04T11:16:54;16.20;99.90
47626;DHT22;33342;45.574;9.252;2022-11-04T11:19:23;16.20;99.90
47626;DHT22;33342;45.574;9.252;2022-11-04T11:21:54;16.20;99.90
47626;DHT22;33342;45.574;9.252;2022-11-04T11:24:24;16.20;99.90
47626;DHT22;33342;45.574;9.252;2022-11-04T11:26:59;16.20;99.90
47626;DHT22;33342;45.574;9.252;2022-11-04T11:29:29;16.20;99.90
47626;DHT22;33342;45.574;9.252;2022-11-04T11:31:58;16.30;99.90
47626;DHT22;33342;45.574;9.252;2022-11-04T11:34:36;16.30;99.90
47626;DHT22;33342;45.574;9.252;2022-11-04T11:37:18;16.30;99.90
47626;DHT22;33342;45.574;9.252;2022-11-04T11:39:47;16.30;99.90
47626;DHT22;33342;45.574;9.252;2022-11-04T11:42:14;16.30;99.90
47626;DHT22;33342;45.574;9.252;2022-11-04T11:44:49;16.30;99.90
47626;DHT22;33342;45.574;9.252;2022-11-04T11:52:39;16.30;99.90
47626;DHT22;33342;45.574;9.252;2022-11-04T11:55:14;16.40;99.90
47626;DHT22;33342;45.574;9.252;2022-11-04T11:58:07;16.40;99.90
47626;DHT22;33342;45.574;9.252;2022-11-04T12:01:12;16.40;99.90
47626;DHT22;33342;45.574;9.252;2022-11-04T12:03:51;16.40;99.90
47626;DHT22;33342;45.574;9.252;2022-11-04T12:09:56;16.40;99.90
47626;DHT22;33342;45.574;9.252;2022-11-04T12:18:30;16.50;99.90
47626;DHT22;33342;45.574;9.252;2022-11-04T12:21:14;16.50;99.90
47626;DHT22;33342;45.574;9.252;2022-11-04T12:30:14;16.60;99.90
47626;DHT22;33342;45.574;9.252;2022-11-04T12:38:53;16.70;99.90
47626;DHT22;33342;45.574;9.252;2022-11-04T12:44:38;16.70;99.90
47626;DHT22;33342;45.574;9.252;2022-11-04T12:47:24;16.80;99.90
47626;DHT22;33342;45.574;9.252;2022-11-04T12:49:58;16.80;99.90
47626;DHT22;33342;45.574;9.252;2022-11-04T12:58:05;16.90;99.90
47626;DHT22;33342;45.574;9.252;2022-11-04T13:00:37;16.90;99.90
47626;DHT22;33342;45.574;9.252;2022-11-04T13:11:11;17.00;99.90
47626;DHT22;33342;45.574;9.252;2022-11-04T13:14:13;17.00;99.90
47626;DHT22;33342;45.574;9.252;2022-11-04T13:16:47;17.10;99.90
47626;DHT22;33342;45.574;9.252;2022-11-04T13:19:42;17.20;99.90
47626;DHT22;33342;45.574;9.252;2022-11-04T13:22:19;17.30;99.90
47626;DHT22;33342;45.574;9.252;2022-11-04T13:24:57;17.50;99.90
47626;DHT22;33342;45.574;9.252;2022-11-04T13:27:45;17.80;99.90
47626;DHT22;33342;45.574;9.252;2022-11-04T13:38:51;18.50;99.90
47626;DHT22;33342;45.574;9.252;2022-11-04T13:43:57;18.70;99.90
47626;DHT22;33342;45.574;9.252;2022-11-04T13:46:27;18.80;99.90
47626;DHT22;33342;45.574;9.252;2022-11-04T13:51:39;18.90;99.90
47626;DHT22;33342;45.574;9.252;2022-11-04T13:54:23;18.90;99.90
47626;DHT22;33342;45.574;9.252;2022-11-04T13:57:05;18.80;99.90
47626;DHT22;33342;45.574;9.252;2022-11-04T13:59:33;18.70;99.90
47626;DHT22;33342;45.574;9.252;2022-11-04T14:04:39;18.80;99.90
47626;DHT22;33342;45.574;9.252;2022-11-04T14:07:08;18.90;99.90
47626;DHT22;33342;45.574;9.252;2022-11-04T14:12:16;18.90;99.90
47626;DHT22;33342;45.574;9.252;2022-11-04T14:14:46;19.00;99.90
47626;DHT22;33342;45.574;9.252;2022-11-04T14:20:20;18.90;99.90
47626;DHT22;33342;45.574;9.252;2022-11-04T14:22:55;18.90;99.90
47626;DHT22;33342;45.574;9.252;2022-11-04T14:25:32;19.00;99.90
47626;DHT22;33342;45.574;9.252;2022-11-04T14:35:54;19.20;99.90
47626;DHT22;33342;45.574;9.252;2022-11-04T14:38:30;19.20;99.90
47626;DHT22;33342;45.574;9.252;2022-11-04T14:41:20;19.10;99.90
47626;DHT22;33342;45.574;9.252;2022-11-04T14:43:48;18.90;99.90
47626;DHT22;33342;45.574;9.252;2022-11-04T14:46:21;19.00;99.90
47626;DHT22;33342;45.574;9.252;2022-11-04T14:48:54;19.20;99.90
47626;DHT22;33342;45.574;9.252;2022-11-04T14:54:05;19.70;99.90
47626;DHT22;33342;45.574;9.252;2022-11-04T14:56:34;19.80;99.90
47626;DHT22;33342;45.574;9.252;2022-11-04T14:59:04;19.90;99.90
47626;DHT22;33342;45.574;9.252;2022-11-04T15:01:35;19.70;99.90
47626;DHT22;33342;45.574;9.252;2022-11-04T15:06:54;19.30;99.90
47626;DHT22;33342;45.574;9.252;2022-11-04T15:09:27;19.20;99.90
47626;DHT22;33342;45.574;9.252;2022-11-04T15:12:17;19.10;99.90
47626;DHT22;33342;45.574;9.252;2022-11-04T15:15:27;18.80;99.90
47626;DHT22;33342;45.574;9.252;2022-11-04T15:18:16;18.70;99.90
47626;DHT22;33342;45.574;9.252;2022-11-04T15:20:55;18.50;99.90
47626;DHT22;33342;45.574;9.252;2022-11-04T15:23:35;18.40;99.90
47626;DHT22;33342;45.574;9.252;2022-11-04T15:26:03;18.30;99.90
47626;DHT22;33342;45.574;9.252;2022-11-04T15:28:38;18.20;99.90
47626;DHT22;33342;45.574;9.252;2022-11-04T15:33:43;18.10;99.90
47626;DHT22;33342;45.574;9.252;2022-11-04T15:36:20;18.10;99.90
47626;DHT22;33342;45.574;9.252;2022-11-04T15:41:26;18.10;99.90
47626;DHT22;33342;45.574;9.252;2022-11-04T15:46:53;18.00;99.90
47626;DHT22;33342;45.574;9.252;2022-11-04T15:49:25;17.90;99.90
47626;DHT22;33342;45.574;9.252;2022-11-04T15:51:58;17.80;99.90
47626;DHT22;33342;45.574;9.252;2022-11-04T15:54:32;17.80;99.90
47626;DHT22;33342;45.574;9.252;2022-11-04T15:57:27;17.70;99.90
47626;DHT22;33342;45.574;9.252;2022-11-04T15:59:53;17.70;99.90
47626;DHT22;33342;45.574;9.252;2022-11-04T16:02:29;17.60;99.90
47626;DHT22;33342;45.574;9.252;2022-11-04T16:08:20;17.40;99.90
47626;DHT22;33342;45.574;9.252;2022-11-04T16:10:48;17.40;99.90
47626;DHT22;33342;45.574;9.252;2022-11-04T16:13:21;17.40;99.90
47626;DHT22;33342;45.574;9.252;2022-11-04T16:16:05;17.30;99.90
47626;DHT22;33342;45.574;9.252;2022-11-04T16:18:42;17.30;99.90
47626;DHT22;33342;45.574;9.252;2022-11-04T16:23:51;17.20;99.90
47626;DHT22;33342;45.574;9.252;2022-11-04T16:26:29;17.10;99.90
47626;DHT22;33342;45.574;9.252;2022-11-04T16:28:58;17.10;99.90
47626;DHT22;33342;45.574;9.252;2022-11-04T16:31:32;17.10;99.90
47626;DHT22;33342;45.574;9.252;2022-11-04T16:34:00;17.00;99.90
47626;DHT22;33342;45.574;9.252;2022-11-04T16:36:27;16.90;99.90
47626;DHT22;33342;45.574;9.252;2022-11-04T16:39:02;16.90;99.90
47626;DHT22;33342;45.574;9.252;2022-11-04T16:41:33;16.80;99.90
47626;DHT22;33342;45.574;9.252;2022-11-04T16:44:02;16.80;99.90
47626;DHT22;33342;45.574;9.252;2022-11-04T16:46:33;16.80;99.90
47626;DHT22;33342;45.574;9.252;2022-11-04T16:49:00;16.80;99.90
47626;DHT22;33342;45.574;9.252;2022-11-04T16:51:27;16.70;99.90
47626;DHT22;33342;45.574;9.252;2022-11-04T16:53:54;16.70;99.90
47626;DHT22;33342;45.574;9.252;2022-11-04T16:56:23;16.70;99.90
47626;DHT22;33342;45.574;9.252;2022-11-04T16:58:51;16.70;99.90
47626;DHT22;33342;45.574;9.252;2022-11-04T17:01:18;16.70;99.90
47626;DHT22;33342;45.574;9.252;2022-11-04T17:03:47;16.60;99.90
47626;DHT22;33342;45.574;9.252;2022-11-04T17:06:17;16.60;99.90
47626;DHT22;33342;45.574;9.252;2022-11-04T17:08:45;16.60;99.90
47626;DHT22;33342;45.574;9.252;2022-11-04T17:11:12;16.60;99.90
47626;DHT22;33342;45.574;9.252;2022-11-04T17:13:39;16.60;99.90
47626;DHT22;33342;45.574;9.252;2022-11-04T17:16:09;16.60;99.90
47626;DHT22;33342;45.574;9.252;2022-11-04T17:18:36;16.50;99.90
47626;DHT22;33342;45.574;9.252;2022-11-04T17:21:10;16.50;99.90
47626;DHT22;33342;45.574;9.252;2022-11-04T17:23:38;16.50;99.90
47626;DHT22;33342;45.574;9.252;2022-11-04T17:26:05;16.50;99.90
47626;DHT22;33342;45.574;9.252;2022-11-04T17:28:32;16.40;99.90
47626;DHT22;33342;45.574;9.252;2022-11-04T17:31:00;16.40;99.90
47626;DHT22;33342;45.574;9.252;2022-11-04T17:33:28;16.40;99.90
47626;DHT22;33342;45.574;9.252;2022-11-04T17:35:55;16.40;99.90
47626;DHT22;33342;45.574;9.252;2022-11-04T17:38:22;16.30;99.90
47626;DHT22;33342;45.574;9.252;2022-11-04T17:40:49;16.30;99.90
47626;DHT22;33342;45.574;9.252;2022-11-04T17:43:35;16.30;99.90
47626;DHT22;33342;45.574;9.252;2022-11-04T17:46:20;16.30;99.90
47626;DHT22;33342;45.574;9.252;2022-11-04T17:49:11;16.30;99.90
47626;DHT22;33342;45.574;9.252;2022-11-04T17:51:44;16.20;99.90
47626;DHT22;33342;45.574;9.252;2022-11-04T17:54:12;16.20;99.90
47626;DHT22;33342;45.574;9.252;2022-11-04T17:56:39;16.20;99.90
47626;DHT22;33342;45.574;9.252;2022-11-04T17:59:07;16.20;99.90
47626;DHT22;33342;45.574;9.252;2022-11-04T18:01:36;16.20;99.90
47626;DHT22;33342;45.574;9.252;2022-11-04T18:04:06;16.20;99.90
47626;DHT22;33342;45.574;9.252;2022-11-04T18:06:35;16.10;99.90
47626;DHT22;33342;45.574;9.252;2022-11-04T18:09:06;16.10;99.90
47626;DHT22;33342;45.574;9.252;2022-11-04T18:11:33;16.10;99.90
47626;DHT22;33342;45.574;9.252;2022-11-04T18:14:18;16.10;99.90
47626;DHT22;33342;45.574;9.252;2022-11-04T18:16:47;16.00;99.90
47626;DHT22;33342;45.574;9.252;2022-11-04T18:19:18;16.00;99.90
47626;DHT22;33342;45.574;9.252;2022-11-04T18:21:46;16.00;99.90
47626;DHT22;33342;45.574;9.252;2022-11-04T18:24:15;15.90;99.90
47626;DHT22;33342;45.574;9.252;2022-11-04T18:26:42;15.90;99.90
47626;DHT22;33342;45.574;9.252;2022-11-04T18:29:10;15.80;99.90
47626;DHT22;33342;45.574;9.252;2022-11-04T18:31:38;15.90;99.90
47626;DHT22;33342;45.574;9.252;2022-11-04T18:34:15;15.90;99.90
47626;DHT22;33342;45.574;9.252;2022-11-04T18:36:45;15.80;99.90
47626;DHT22;33342;45.574;9.252;2022-11-04T18:39:14;15.80;99.90
47626;DHT22;33342;45.574;9.252;2022-11-04T18:41:42;15.80;99.90
47626;DHT22;33342;45.574;9.252;2022-11-04T18:44:16;15.80;99.90